createdAt,value
2018-11-05T00:02:20.130Z,50.60
2018-11-05T00:04:48.455Z,50.60
2018-11-05T00:07:16.718Z,50.70
2018-11-05T00:09:45.007Z,50.70
2018-11-05T00:12:13.267Z,50.70
2018-11-05T00:14:41.671Z,50.70
2018-11-05T00:17:10.053Z,50.70
2018-11-05T00:19:38.478Z,50.70
2018-11-05T00:22:07.145Z,50.60
2018-11-05T00:24:35.588Z,50.80
2018-11-05T00:27:03.945Z,50.80
2018-11-05T00:29:32.217Z,50.80
2018-11-05T00:32:00.467Z,50.80
2018-11-05T00:34:28.735Z,50.90
2018-11-05T00:36:56.986Z,50.90
2018-11-05T00:39:25.300Z,50.80
2018-11-05T00:41:53.539Z,50.90
2018-11-05T00:44:21.812Z,51.00
2018-11-05T00:46:50.075Z,51.00
2018-11-05T00:49:18.493Z,51.00
2018-11-05T00:51:46.875Z,51.20
2018-11-05T00:54:15.260Z,51.30
2018-11-05T00:56:43.579Z,51.30
2018-11-05T00:59:11.928Z,51.00
2018-11-05T01:01:40.420Z,50.90
2018-11-05T01:04:08.836Z,50.90
2018-11-05T01:06:37.176Z,51.00
2018-11-05T01:09:06.767Z,51.60
2018-11-05T01:11:35.175Z,51.70
2018-11-05T01:14:03.616Z,51.50
2018-11-05T01:16:31.882Z,50.90
2018-11-05T01:19:00.135Z,51.00
2018-11-05T01:21:28.431Z,51.10
2018-11-05T01:23:56.682Z,51.30
2018-11-05T01:26:24.996Z,51.20
2018-11-05T01:28:53.291Z,51.00
2018-11-05T01:31:21.547Z,51.20
2018-11-05T01:33:49.835Z,51.20
2018-11-05T01:36:18.152Z,51.30
2018-11-05T01:38:46.487Z,51.30
2018-11-05T01:41:14.757Z,51.30
2018-11-05T01:43:43.003Z,51.30
2018-11-05T01:46:11.292Z,51.30
2018-11-05T01:48:39.560Z,51.40
2018-11-05T01:51:07.867Z,51.40
2018-11-05T01:53:36.143Z,51.50
2018-11-05T01:56:04.627Z,51.60
2018-11-05T01:58:32.872Z,51.50
2018-11-05T02:01:01.181Z,51.40
2018-11-05T02:03:29.518Z,51.50
2018-11-05T02:05:57.819Z,51.40
2018-11-05T02:08:26.079Z,51.50
2018-11-05T02:10:54.394Z,51.50
2018-11-05T02:13:22.792Z,51.60
2018-11-05T02:15:51.374Z,51.70
2018-11-05T02:18:19.666Z,51.80
2018-11-05T02:20:47.986Z,51.70
2018-11-05T02:23:16.339Z,51.70
2018-11-05T02:25:44.638Z,52.40
2018-11-05T02:28:13.000Z,51.80
2018-11-05T02:30:41.283Z,51.90
2018-11-05T02:33:09.584Z,51.80
2018-11-05T02:35:37.952Z,51.90
2018-11-05T02:38:06.290Z,51.80
2018-11-05T02:40:34.584Z,51.80
2018-11-05T02:43:02.872Z,51.90
2018-11-05T02:45:31.331Z,52.00
2018-11-05T02:47:59.625Z,52.10
2018-11-05T02:50:28.067Z,52.10
2018-11-05T02:52:56.354Z,52.10
2018-11-05T02:55:24.648Z,52.30
2018-11-05T02:57:53.050Z,52.20
2018-11-05T03:00:21.652Z,52.20
2018-11-05T03:02:50.025Z,52.20
2018-11-05T03:05:19.428Z,52.20
2018-11-05T03:07:48.410Z,52.20
2018-11-05T03:10:16.897Z,52.30
2018-11-05T03:12:46.255Z,52.40
2018-11-05T03:15:16.661Z,52.40
2018-11-05T03:17:44.988Z,52.40
2018-11-05T03:20:13.977Z,52.40
2018-11-05T03:22:42.746Z,52.50
2018-11-05T03:25:11.025Z,52.50
2018-11-05T03:27:39.627Z,52.50
2018-11-05T03:30:10.507Z,52.40
2018-11-05T03:32:38.949Z,52.50
2018-11-05T03:35:07.996Z,52.60
2018-11-05T03:37:36.372Z,52.50
2018-11-05T03:40:05.274Z,52.40
2018-11-05T03:42:33.551Z,52.60
2018-11-05T03:45:01.816Z,52.40
2018-11-05T03:47:30.071Z,52.50
2018-11-05T03:49:58.384Z,52.60
2018-11-05T03:52:26.668Z,52.50
2018-11-05T03:54:55.007Z,52.60
2018-11-05T03:57:23.255Z,52.50
2018-11-05T03:59:51.699Z,52.60
2018-11-05T04:02:20.046Z,52.70
2018-11-05T04:04:48.368Z,52.60
2018-11-05T04:07:16.687Z,52.60
2018-11-05T04:09:44.999Z,52.60
2018-11-05T04:12:13.300Z,52.60
2018-11-05T04:14:41.634Z,52.60
2018-11-05T04:17:09.935Z,52.80
2018-11-05T04:19:38.286Z,52.90
2018-11-05T04:22:06.600Z,52.80
2018-11-05T04:24:34.956Z,52.80
2018-11-05T04:27:03.331Z,52.80
2018-11-05T04:29:31.640Z,52.70
2018-11-05T04:31:59.950Z,52.80
2018-11-05T04:34:28.294Z,52.60
2018-11-05T04:36:56.612Z,52.60
2018-11-05T04:39:24.923Z,52.60
2018-11-05T04:41:53.241Z,52.50
2018-11-05T04:44:21.579Z,52.70
2018-11-05T04:46:49.963Z,52.30
2018-11-05T04:49:18.346Z,52.40
2018-11-05T04:51:46.789Z,52.30
2018-11-05T04:54:15.092Z,52.40
2018-11-05T04:56:43.479Z,52.70
2018-11-05T04:59:11.785Z,52.30
2018-11-05T05:01:40.128Z,52.30
2018-11-05T05:04:08.460Z,52.50
2018-11-05T05:06:36.846Z,52.60
2018-11-05T05:09:08.487Z,52.60
2018-11-05T05:11:36.824Z,52.50
2018-11-05T05:14:07.209Z,52.20
2018-11-05T05:16:35.571Z,52.10
2018-11-05T05:19:04.138Z,52.00
2018-11-05T05:21:32.603Z,51.90
2018-11-05T05:24:01.412Z,51.90
2018-11-05T05:26:29.747Z,51.90
2018-11-05T05:28:58.039Z,51.90
2018-11-05T05:31:26.355Z,51.80
2018-11-05T05:33:54.671Z,51.70
2018-11-05T05:36:23.025Z,51.50
2018-11-05T05:38:51.338Z,51.50
2018-11-05T05:41:19.952Z,51.40
2018-11-05T05:43:48.228Z,51.30
2018-11-05T05:46:16.585Z,51.30
2018-11-05T05:48:44.863Z,51.10
2018-11-05T05:51:13.188Z,50.90
2018-11-05T05:53:41.495Z,51.00
2018-11-05T05:56:09.824Z,51.20
2018-11-05T05:58:38.307Z,51.20
2018-11-05T06:01:06.634Z,51.30
2018-11-05T06:03:34.947Z,51.40
2018-11-05T06:06:03.382Z,51.60
2018-11-05T06:08:31.714Z,51.60
2018-11-05T06:11:00.132Z,51.90
2018-11-05T06:13:28.448Z,52.00
2018-11-05T06:15:56.836Z,51.70
2018-11-05T06:18:25.184Z,51.50
2018-11-05T06:20:53.599Z,51.40
2018-11-05T06:23:21.961Z,51.30
2018-11-05T06:25:50.425Z,51.20
2018-11-05T06:28:18.967Z,51.30
2018-11-05T06:30:47.727Z,51.20
2018-11-05T06:33:17.643Z,51.10
2018-11-05T06:35:45.990Z,50.90
2018-11-05T06:38:14.452Z,51.10
2018-11-05T06:40:42.915Z,51.00
2018-11-05T06:43:11.280Z,51.10
2018-11-05T06:45:39.575Z,51.00
2018-11-05T06:48:07.950Z,51.00
2018-11-05T06:50:36.260Z,51.00
2018-11-05T06:53:04.754Z,50.90
2018-11-05T06:55:33.049Z,50.80
2018-11-05T06:58:01.403Z,50.90
2018-11-05T07:00:29.928Z,50.70
2018-11-05T07:02:58.276Z,50.40
2018-11-05T07:05:26.576Z,50.50
2018-11-05T07:07:54.963Z,50.60
2018-11-05T07:10:23.336Z,50.70
2018-11-05T07:12:51.679Z,50.70
2018-11-05T07:15:20.305Z,50.70
2018-11-05T07:17:49.491Z,50.50
2018-11-05T07:20:18.993Z,50.60
2018-11-05T07:22:48.331Z,50.80
2018-11-05T07:25:16.916Z,50.80
2018-11-05T07:27:45.315Z,50.60
2018-11-05T07:30:18.943Z,50.80
2018-11-05T07:32:48.068Z,50.80
2018-11-05T07:35:16.724Z,50.80
2018-11-05T07:37:45.060Z,50.80
2018-11-05T07:40:14.937Z,50.70
2018-11-05T07:42:43.447Z,50.60
2018-11-05T07:45:17.508Z,50.70
2018-11-05T07:47:46.499Z,50.70
2018-11-05T07:50:15.816Z,50.50
2018-11-05T07:52:44.179Z,50.50
2018-11-05T07:55:13.796Z,50.30
2018-11-05T07:57:43.225Z,50.30
2018-11-05T08:00:18.388Z,50.20
2018-11-05T08:02:50.404Z,50.00
2018-11-05T08:05:20.288Z,49.90
2018-11-05T08:07:49.008Z,49.80
2018-11-05T08:10:17.482Z,49.80
2018-11-05T08:12:46.105Z,49.80
2018-11-05T08:15:17.483Z,50.40
2018-11-05T08:17:47.135Z,49.80
2018-11-05T08:20:15.831Z,49.50
2018-11-05T08:22:44.622Z,49.70
2018-11-05T08:25:19.654Z,49.60
2018-11-05T08:27:48.504Z,49.50
2018-11-05T08:30:25.162Z,49.50
2018-11-05T08:32:54.175Z,49.70
2018-11-05T08:35:23.849Z,49.60
2018-11-05T08:37:53.501Z,49.60
2018-11-05T08:40:25.158Z,49.50
2018-11-05T08:42:54.715Z,49.60
2018-11-05T08:45:24.590Z,49.70
2018-11-05T08:47:53.747Z,49.60
2018-11-05T08:50:23.140Z,49.60
2018-11-05T08:52:51.780Z,49.60
2018-11-05T08:55:21.953Z,49.40
2018-11-05T08:57:50.594Z,49.30
2018-11-05T09:00:24.781Z,49.50
2018-11-05T09:02:54.418Z,49.40
2018-11-05T09:05:23.530Z,49.20
2018-11-05T09:07:54.459Z,49.00
2018-11-05T09:10:23.763Z,48.80
2018-11-05T09:12:52.849Z,48.50
2018-11-05T09:15:23.020Z,48.30
2018-11-05T09:17:51.910Z,47.90
2018-11-05T09:20:21.509Z,47.90
2018-11-05T09:22:50.939Z,47.40
2018-11-05T09:25:19.807Z,47.10
2018-11-05T09:27:49.094Z,46.70
2018-11-05T09:30:22.645Z,47.10
2018-11-05T09:32:51.833Z,46.50
2018-11-05T09:35:21.322Z,45.90
2018-11-05T09:37:50.038Z,45.40
2018-11-05T09:40:23.344Z,45.10
2018-11-05T09:42:52.977Z,44.30
2018-11-05T09:45:24.143Z,44.20
2018-11-05T09:47:53.954Z,43.90
2018-11-05T09:50:24.246Z,43.30
2018-11-05T09:52:52.854Z,43.80
2018-11-05T09:55:21.911Z,43.30
2018-11-05T09:57:50.442Z,43.30
2018-11-05T10:00:20.517Z,43.20
2018-11-05T10:02:55.479Z,43.70
2018-11-05T10:05:24.768Z,43.70
2018-11-05T10:07:53.581Z,43.60
2018-11-05T10:10:22.582Z,43.60
2018-11-05T10:12:51.476Z,43.70
2018-11-05T10:15:20.363Z,43.70
2018-11-05T10:17:49.014Z,43.60
2018-11-05T10:20:19.318Z,44.00
2018-11-05T10:22:48.037Z,43.90
2018-11-05T10:25:17.047Z,43.30
2018-11-05T10:27:45.686Z,43.00
2018-11-05T10:30:18.128Z,42.30
2018-11-05T10:32:46.691Z,42.40
2018-11-05T10:35:15.999Z,42.50
2018-11-05T10:37:44.471Z,42.70
2018-11-05T10:40:14.843Z,42.70
2018-11-05T10:42:44.171Z,42.90
2018-11-05T10:45:13.956Z,42.80
2018-11-05T10:47:42.417Z,42.60
2018-11-05T10:50:12.620Z,42.90
2018-11-05T10:52:40.964Z,42.70
2018-11-05T10:55:09.837Z,42.20
2018-11-05T10:57:38.577Z,41.80
2018-11-05T11:00:14.688Z,41.70
2018-11-05T11:02:43.026Z,41.50
2018-11-05T11:05:11.326Z,41.90
2018-11-05T11:07:39.864Z,41.70
2018-11-05T11:10:08.210Z,41.60
2018-11-05T11:12:36.619Z,41.40
2018-11-05T11:15:05.891Z,40.80
2018-11-05T11:17:34.189Z,40.10
2018-11-05T11:20:02.465Z,39.90
2018-11-05T11:22:30.765Z,40.00
2018-11-05T11:24:59.072Z,40.20
2018-11-05T11:27:27.371Z,40.80
2018-11-05T11:29:55.646Z,40.30
2018-11-05T11:32:23.950Z,40.70
2018-11-05T11:34:52.363Z,41.00
2018-11-05T11:37:20.852Z,41.20
2018-11-05T11:39:49.210Z,41.30
2018-11-05T11:42:17.698Z,41.40
2018-11-05T11:44:46.032Z,41.60
2018-11-05T11:47:14.302Z,41.60
2018-11-05T11:49:42.966Z,41.40
2018-11-05T11:52:11.308Z,41.30
2018-11-05T11:54:39.600Z,41.40
2018-11-05T11:57:08.011Z,41.50
2018-11-05T11:59:36.471Z,41.80
2018-11-05T12:02:10.409Z,41.80
2018-11-05T12:04:38.998Z,41.80
2018-11-05T12:07:07.498Z,41.70
2018-11-05T12:09:36.227Z,41.80
2018-11-05T12:12:04.783Z,41.80
2018-11-05T12:14:33.264Z,41.70
2018-11-05T12:17:01.514Z,41.70
2018-11-05T12:19:29.954Z,41.50
2018-11-05T12:21:58.275Z,41.40
2018-11-05T12:24:26.816Z,41.50
2018-11-05T12:26:55.095Z,41.40
2018-11-05T12:29:23.485Z,41.50
2018-11-05T12:31:51.844Z,41.50
2018-11-05T12:34:20.292Z,41.40
2018-11-05T12:36:49.016Z,41.70
2018-11-05T12:39:17.389Z,41.70
2018-11-05T12:41:45.816Z,41.70
2018-11-05T12:44:14.103Z,42.00
2018-11-05T12:46:42.496Z,41.90
2018-11-05T12:49:10.889Z,42.20
2018-11-05T12:51:39.164Z,42.40
2018-11-05T12:54:07.479Z,42.50
2018-11-05T12:56:35.946Z,42.80
2018-11-05T12:59:04.283Z,42.70
2018-11-05T13:01:32.640Z,42.60
2018-11-05T13:04:00.994Z,42.30
2018-11-05T13:06:29.458Z,42.10
2018-11-05T13:08:57.746Z,41.50
2018-11-05T13:11:26.157Z,40.90
2018-11-05T13:13:54.556Z,40.40
2018-11-05T13:16:22.983Z,39.70
2018-11-05T13:18:51.585Z,39.10
2018-11-05T13:21:20.037Z,38.90
2018-11-05T13:23:48.380Z,38.90
2018-11-05T13:26:17.143Z,38.60
2018-11-05T13:28:45.479Z,37.90
2018-11-05T13:31:13.963Z,37.70
2018-11-05T13:33:42.324Z,37.30
2018-11-05T13:36:10.680Z,37.50
2018-11-05T13:38:39.264Z,38.00
2018-11-05T13:41:07.411Z,37.90
2018-11-05T13:43:35.703Z,38.00
2018-11-05T13:46:04.549Z,37.80
2018-11-05T13:48:33.394Z,37.70
2018-11-05T13:51:00.932Z,37.80
2018-11-05T13:53:29.203Z,37.90
2018-11-05T13:55:57.491Z,37.90
2018-11-05T13:58:26.123Z,38.40
2018-11-05T14:00:54.581Z,38.80
2018-11-05T14:03:23.204Z,38.90
2018-11-05T14:05:51.574Z,39.10
2018-11-05T14:08:20.366Z,39.30
2018-11-05T14:10:48.811Z,39.50
2018-11-05T14:13:17.247Z,39.50
2018-11-05T14:15:46.528Z,39.60
2018-11-05T14:18:14.942Z,39.70
2018-11-05T14:20:43.215Z,40.10
2018-11-05T14:23:11.612Z,40.10
2018-11-05T14:25:40.042Z,40.30
2018-11-05T14:28:08.713Z,40.40
2018-11-05T14:30:36.667Z,41.10
2018-11-05T14:33:04.978Z,40.80
2018-11-05T14:35:33.268Z,40.70
2018-11-05T14:38:01.645Z,40.80
2018-11-05T14:40:36.617Z,41.00
2018-11-05T14:43:05.557Z,41.20
2018-11-05T14:45:33.820Z,41.40
2018-11-05T14:48:02.117Z,41.80
2018-11-05T14:50:30.496Z,41.40
2018-11-05T14:52:58.754Z,41.60
2018-11-05T14:55:27.104Z,41.70
2018-11-05T14:57:55.492Z,41.80
2018-11-05T15:00:27.832Z,41.90
2018-11-05T15:02:56.788Z,41.90
2018-11-05T15:05:25.761Z,42.10
2018-11-05T15:07:54.076Z,42.40
2018-11-05T15:10:23.803Z,42.40
2018-11-05T15:12:52.183Z,42.50
2018-11-05T15:15:21.311Z,42.40
2018-11-05T15:17:49.875Z,42.60
2018-11-05T15:20:20.654Z,42.60
2018-11-05T15:22:49.048Z,42.70
2018-11-05T15:25:18.206Z,43.00
2018-11-05T15:27:46.602Z,43.10
2018-11-05T15:30:17.613Z,43.20
2018-11-05T15:32:46.403Z,43.90
2018-11-05T15:35:15.012Z,43.30
2018-11-05T15:37:43.888Z,43.30
2018-11-05T15:40:14.156Z,43.60
2018-11-05T15:42:42.542Z,43.60
2018-11-05T15:45:13.089Z,43.80
2018-11-05T15:47:41.996Z,43.90
2018-11-05T15:50:12.422Z,44.00
2018-11-05T15:52:41.090Z,44.20
2018-11-05T15:55:09.623Z,44.30
2018-11-05T15:57:38.755Z,45.10
2018-11-05T16:00:14.179Z,44.50
2018-11-05T16:02:42.649Z,44.60
2018-11-05T16:05:11.048Z,44.70
2018-11-05T16:07:39.490Z,44.90
2018-11-05T16:10:08.416Z,45.10
2018-11-05T16:12:37.285Z,45.20
2018-11-05T16:15:06.718Z,45.20
2018-11-05T16:17:35.467Z,45.10
2018-11-05T16:20:04.130Z,45.30
2018-11-05T16:22:32.429Z,45.40
2018-11-05T16:25:01.092Z,45.70
2018-11-05T16:27:29.773Z,45.70
2018-11-05T16:29:58.703Z,45.70
2018-11-05T16:32:27.267Z,45.80
2018-11-05T16:34:56.467Z,45.60
2018-11-05T16:37:24.920Z,45.80
2018-11-05T16:39:53.531Z,45.80
2018-11-05T16:42:21.880Z,46.10
2018-11-05T16:44:50.488Z,46.00
2018-11-05T16:47:18.810Z,46.00
2018-11-05T16:49:47.191Z,46.10
2018-11-05T16:52:15.552Z,46.20
2018-11-05T16:54:43.945Z,46.40
2018-11-05T16:57:12.259Z,46.50
2018-11-05T16:59:40.602Z,46.50
2018-11-05T17:02:14.227Z,46.40
2018-11-05T17:04:43.271Z,46.60
2018-11-05T17:07:11.588Z,46.80
2018-11-05T17:09:39.963Z,46.90
2018-11-05T17:12:08.347Z,46.90
2018-11-05T17:14:36.701Z,47.00
2018-11-05T17:17:05.060Z,47.00
2018-11-05T17:19:33.612Z,47.00
2018-11-05T17:22:02.255Z,47.10
2018-11-05T17:24:30.703Z,47.20
2018-11-05T17:26:59.031Z,47.40
2018-11-05T17:29:27.546Z,47.10
2018-11-05T17:31:56.108Z,47.20
2018-11-05T17:34:24.468Z,47.40
2018-11-05T17:36:53.087Z,47.50
2018-11-05T17:39:21.635Z,47.70
2018-11-05T17:41:50.141Z,47.70
2018-11-05T17:44:18.572Z,47.80
2018-11-05T17:46:47.076Z,47.90
2018-11-05T17:49:15.416Z,48.00
2018-11-05T17:51:43.955Z,48.60
2018-11-05T17:54:12.267Z,48.00
2018-11-05T17:56:40.634Z,48.10
2018-11-05T17:59:08.944Z,48.10
2018-11-05T18:01:37.276Z,48.10
2018-11-05T18:04:05.636Z,48.20
2018-11-05T18:06:34.056Z,48.30
2018-11-05T18:09:02.384Z,48.30
2018-11-05T18:11:30.761Z,48.30
2018-11-05T18:13:59.079Z,48.50
2018-11-05T18:16:27.406Z,48.50
2018-11-05T18:18:56.792Z,48.60
2018-11-05T18:21:25.208Z,49.20
2018-11-05T18:23:53.632Z,48.70
2018-11-05T18:26:22.005Z,48.80
2018-11-05T18:28:50.447Z,48.90
2018-11-05T18:31:18.936Z,48.90
2018-11-05T18:33:47.404Z,48.90
2018-11-05T18:36:15.832Z,48.90
2018-11-05T18:38:44.273Z,49.00
2018-11-05T18:41:12.622Z,49.10
2018-11-05T18:43:41.050Z,48.90
2018-11-05T18:46:09.417Z,49.00
2018-11-05T18:48:37.709Z,49.10
2018-11-05T18:51:06.084Z,49.10
2018-11-05T18:53:34.459Z,49.20
2018-11-05T18:56:02.783Z,49.20
2018-11-05T18:58:31.255Z,49.30
2018-11-05T19:00:59.597Z,49.40
2018-11-05T19:03:28.078Z,49.40
2018-11-05T19:05:56.345Z,49.70
2018-11-05T19:08:24.907Z,49.60
2018-11-05T19:10:53.355Z,49.70
2018-11-05T19:13:21.743Z,49.80
2018-11-05T19:15:50.262Z,50.00
2018-11-05T19:18:18.593Z,49.70
2018-11-05T19:20:46.971Z,49.80
2018-11-05T19:23:15.498Z,50.00
2018-11-05T19:25:43.944Z,50.10
2018-11-05T19:28:12.885Z,50.00
2018-11-05T19:30:41.385Z,49.90
2018-11-05T19:33:09.662Z,49.80
2018-11-05T19:35:37.951Z,49.90
2018-11-05T19:38:06.393Z,49.90
2018-11-05T19:40:34.788Z,49.70
2018-11-05T19:43:03.146Z,49.80
2018-11-05T19:45:31.545Z,49.80
2018-11-05T19:47:59.935Z,49.80
2018-11-05T19:50:28.513Z,49.90
2018-11-05T19:52:57.316Z,49.90
2018-11-05T19:55:26.140Z,50.20
2018-11-05T19:57:54.473Z,50.20
2018-11-05T20:00:27.037Z,50.80
2018-11-05T20:02:56.143Z,50.40
2018-11-05T20:05:24.691Z,50.30
2018-11-05T20:07:53.868Z,50.20
2018-11-05T20:10:22.307Z,50.40
2018-11-05T20:12:50.949Z,50.70
2018-11-05T20:15:19.505Z,50.80
2018-11-05T20:17:49.112Z,51.00
2018-11-05T20:20:19.087Z,51.30
2018-11-05T20:22:47.494Z,51.60
2018-11-05T20:25:15.819Z,51.70
2018-11-05T20:27:44.834Z,51.80
2018-11-05T20:30:15.972Z,52.50
2018-11-05T20:32:45.931Z,52.30
2018-11-05T20:35:14.339Z,51.90
2018-11-05T20:37:42.679Z,51.90
2018-11-05T20:40:13.540Z,52.00
2018-11-05T20:42:42.900Z,52.20
2018-11-05T20:45:11.417Z,51.70
2018-11-05T20:47:40.377Z,51.90
2018-11-05T20:50:09.627Z,51.90
2018-11-05T20:52:38.472Z,52.60
2018-11-05T20:55:07.607Z,52.70
2018-11-05T20:57:36.024Z,52.50
2018-11-05T21:00:04.997Z,52.00
2018-11-05T21:02:33.524Z,51.80
2018-11-05T21:05:01.987Z,51.60
2018-11-05T21:07:30.377Z,51.60
2018-11-05T21:09:58.892Z,51.50
2018-11-05T21:12:27.358Z,51.70
2018-11-05T21:14:55.682Z,51.70
2018-11-05T21:17:24.364Z,52.30
2018-11-05T21:19:52.757Z,52.10
2018-11-05T21:22:21.233Z,52.20
2018-11-05T21:24:49.559Z,52.00
2018-11-05T21:27:18.213Z,52.20
2018-11-05T21:29:46.633Z,52.40
2018-11-05T21:32:14.998Z,52.50
2018-11-05T21:34:43.340Z,52.50
2018-11-05T21:37:11.629Z,53.20
2018-11-05T21:39:40.110Z,52.60
2018-11-05T21:42:08.448Z,52.60
2018-11-05T21:44:36.748Z,52.50
2018-11-05T21:47:05.088Z,52.50
2018-11-05T21:49:33.414Z,52.60
2018-11-05T21:52:01.739Z,52.70
2018-11-05T21:54:30.091Z,52.60
2018-11-05T21:56:58.421Z,52.80
2018-11-05T21:59:26.807Z,52.90
2018-11-05T22:01:55.298Z,52.90
2018-11-05T22:04:23.709Z,53.40
2018-11-05T22:06:52.087Z,52.80
2018-11-05T22:09:20.721Z,52.90
2018-11-05T22:11:49.222Z,52.80
2018-11-05T22:14:17.663Z,52.90
2018-11-05T22:16:45.996Z,52.90
2018-11-05T22:19:14.308Z,52.40
2018-11-05T22:21:42.589Z,52.90
2018-11-05T22:24:11.084Z,52.90
2018-11-05T22:26:39.375Z,53.00
2018-11-05T22:29:07.716Z,53.00
2018-11-05T22:31:36.050Z,53.10
2018-11-05T22:34:04.627Z,53.20
2018-11-05T22:36:32.943Z,53.20
2018-11-05T22:39:01.296Z,53.20
2018-11-05T22:41:29.605Z,53.10
2018-11-05T22:43:57.909Z,53.20
2018-11-05T22:46:26.380Z,53.20
2018-11-05T22:48:54.715Z,53.40
2018-11-05T22:51:26.465Z,53.60
2018-11-05T22:53:54.908Z,53.60
2018-11-05T22:56:24.026Z,53.60
2018-11-05T22:58:52.536Z,53.50
2018-11-05T23:01:26.533Z,53.20
2018-11-05T23:03:54.912Z,53.10
2018-11-05T23:06:23.354Z,53.10
2018-11-05T23:08:51.756Z,53.20
2018-11-05T23:11:20.247Z,53.10
2018-11-05T23:13:48.605Z,53.20
2018-11-05T23:16:16.951Z,53.40
2018-11-05T23:18:45.262Z,53.40
2018-11-05T23:21:13.668Z,53.50
2018-11-05T23:23:41.980Z,53.50
2018-11-05T23:26:10.351Z,53.50
2018-11-05T23:28:38.655Z,53.50
2018-11-05T23:31:06.927Z,53.60
2018-11-05T23:33:35.295Z,53.70
2018-11-05T23:36:03.535Z,53.80
2018-11-05T23:38:31.819Z,53.90
2018-11-05T23:41:00.214Z,53.90
2018-11-05T23:43:28.583Z,53.90
2018-11-05T23:45:56.891Z,53.90
2018-11-05T23:48:25.179Z,53.80
2018-11-05T23:50:53.500Z,53.70
2018-11-05T23:53:21.859Z,53.70
2018-11-05T23:55:50.247Z,53.70
2018-11-05T23:58:18.684Z,53.80
